aviador You're here:

EYVI Decoded Metar

VILNIUS INTL in LITHUANIA
Report Time2018-01-19 16:50:00
UTC Time2018-01-19 17:17:42
Flight Rules ifr IFR
Wind020° at 05 kt
W.Decomp.*RWY 02: 5.0 kt HW 0.5 kt LCW
W.Rank020° ranks 28
Current wind is below 020° avg. (5.9)
Visibility3600 m
Phenomena:Light Snow
Mist
Clouds:Scattered 005 Hf
Overcast 035 Hf
Ceiling3,500 ft
Temp-3°C (ISA -17)
Dew Point-3°C (100% RH)
AAT-7.2°C
QNH0999 hPa
Density Alt-856 ft
Elevation646 ft
Report Wrong Elevation
Raw Report
EYVI 191650Z 02005KT 3600 -SN BR SCT005 OVC035 M03/M03 Q0999
R01/6/0294 NOSIG=

Extra information for EYVI:More info

Metar Taf Metar & Taf Last 4 Metars F.Rules Stats Wind Profile Meteogram Temp Stats Airport Information Weather charts Add Link Nearby VenuesMetar ALERT Operation Metar Decoded Social comments